Terminal Aerodrome Forecast
Issued by NWS

Home | Current Version | Previous Version | Text Only | Print | Product List | Glossary On
Versions: 1 2 3 4 5 6 7 8 9 10 11 12 13 14 15 16 17 18 19 20 21 22 23 24 25 26 27 28 29 30 31 32
000
FTUS41 KRNK 040949 AAA
TAFLWB
TAF AMD
KLWB 040949Z 0410/0506 00000KT P6SM BKN080
      TEMPO 0410/0412 4SM BR
     FM041300 27005KT P6SM OVC020
     FM041700 29007KT P6SM VCSH BKN045
     FM042300 29004KT P6SM SCT040 BKN100
     FM050300 00000KT 4SM -SHRA BR OVC015=

USA.gov is the U.S. government's official web portal to all federal, state and local government web resources and services.